sensor_id;sensor_type;location;lat;lon;timestamp;pressure;altitude;pressure_sealevel;temperature;humidity
74169;BME280;62523;53.336;83.690;2022-08-11T00:01:26;98578.41;;;17.95;70.18
74169;BME280;62523;53.336;83.690;2022-08-11T00:06:35;98579.81;;;18.79;67.47
74169;BME280;62523;53.336;83.690;2022-08-11T00:11:40;98564.25;;;19.00;66.05
74169;BME280;62523;53.336;83.690;2022-08-11T00:16:43;98571.75;;;19.74;63.73
74169;BME280;62523;53.336;83.690;2022-08-11T00:21:54;98579.16;;;20.04;63.19
74169;BME280;62523;53.336;83.690;2022-08-11T00:26:55;98578.69;;;20.75;60.29
74169;BME280;62523;53.336;83.690;2022-08-11T00:32:00;98590.53;;;20.89;59.64
74169;BME280;62523;53.336;83.690;2022-08-11T00:37:10;98594.91;;;20.73;60.06
74169;BME280;62523;53.336;83.690;2022-08-11T01:03:26;98588.34;;;19.86;63.58
74169;BME280;62523;53.336;83.690;2022-08-11T01:35:31;98595.56;;;20.26;62.44
74169;BME280;62523;53.336;83.690;2022-08-11T01:46:16;98587.06;;;20.31;62.35
74169;BME280;62523;53.336;83.690;2022-08-11T01:56:57;98594.75;;;20.34;62.21
74169;BME280;62523;53.336;83.690;2022-08-11T02:02:28;98607.63;;;20.22;63.23
74169;BME280;62523;53.336;83.690;2022-08-11T02:18:41;98604.47;;;21.40;58.98
74169;BME280;62523;53.336;83.690;2022-08-11T02:24:13;98612.59;;;21.71;58.32
74169;BME280;62523;53.336;83.690;2022-08-11T02:35:31;98615.28;;;21.71;58.46
74169;BME280;62523;53.336;83.690;2022-08-11T02:41:07;98609.50;;;22.14;57.39
74169;BME280;62523;53.336;83.690;2022-08-11T02:47:01;98615.59;;;22.07;58.01
74169;BME280;62523;53.336;83.690;2022-08-11T02:52:18;98612.81;;;22.24;57.83
74169;BME280;62523;53.336;83.690;2022-08-11T02:57:26;98612.41;;;22.04;58.63
74169;BME280;62523;53.336;83.690;2022-08-11T03:02:57;98617.19;;;22.48;56.66
74169;BME280;62523;53.336;83.690;2022-08-11T03:24:38;98613.97;;;23.95;53.07
74169;BME280;62523;53.336;83.690;2022-08-11T03:34:52;98619.47;;;24.66;51.09
74169;BME280;62523;53.336;83.690;2022-08-11T04:02:07;98609.94;;;24.63;51.24
74169;BME280;62523;53.336;83.690;2022-08-11T04:07:22;98606.84;;;24.66;50.78
74169;BME280;62523;53.336;83.690;2022-08-11T04:12:37;98611.78;;;25.19;50.62
74169;BME280;62523;53.336;83.690;2022-08-11T04:56:10;98620.31;;;24.94;51.10
74169;BME280;62523;53.336;83.690;2022-08-11T05:07:28;98623.63;;;25.60;48.29
74169;BME280;62523;53.336;83.690;2022-08-11T05:17:59;98613.84;;;25.45;46.29
74169;BME280;62523;53.336;83.690;2022-08-11T05:23:24;98604.56;;;25.61;44.48
74169;BME280;62523;53.336;83.690;2022-08-11T05:28:59;98614.69;;;25.94;44.04
74169;BME280;62523;53.336;83.690;2022-08-11T05:34:27;98599.22;;;26.49;43.07
74169;BME280;62523;53.336;83.690;2022-08-11T05:40:14;98590.84;;;25.98;44.48
74169;BME280;62523;53.336;83.690;2022-08-11T05:45:33;98584.94;;;25.87;44.06
74169;BME280;62523;53.336;83.690;2022-08-11T05:50:58;98585.31;;;26.46;43.28
74169;BME280;62523;53.336;83.690;2022-08-11T05:56:19;98602.97;;;26.55;42.64
74169;BME280;62523;53.336;83.690;2022-08-11T06:01:29;98589.72;;;26.67;41.94
74169;BME280;62523;53.336;83.690;2022-08-11T06:06:31;98584.47;;;26.45;41.59
74169;BME280;62523;53.336;83.690;2022-08-11T06:11:37;98576.63;;;26.64;41.76
74169;BME280;62523;53.336;83.690;2022-08-11T06:16:40;98554.78;;;26.52;42.43
74169;BME280;62523;53.336;83.690;2022-08-11T06:21:44;98569.16;;;26.66;41.44
74169;BME280;62523;53.336;83.690;2022-08-11T06:26:49;98572.44;;;26.94;41.39
74169;BME280;62523;53.336;83.690;2022-08-11T06:37:24;98563.72;;;26.52;41.76
74169;BME280;62523;53.336;83.690;2022-08-11T06:47:45;98560.13;;;27.25;40.24
74169;BME280;62523;53.336;83.690;2022-08-11T06:52:47;98541.19;;;27.25;39.90
74169;BME280;62523;53.336;83.690;2022-08-11T06:57:49;98550.81;;;27.73;38.34
74169;BME280;62523;53.336;83.690;2022-08-11T07:03:17;98536.22;;;27.22;40.05
74169;BME280;62523;53.336;83.690;2022-08-11T07:14:01;98530.63;;;27.04;39.96
74169;BME280;62523;53.336;83.690;2022-08-11T07:19:23;98530.25;;;26.53;41.46
74169;BME280;62523;53.336;83.690;2022-08-11T07:25:23;98530.88;;;26.55;40.76
74169;BME280;62523;53.336;83.690;2022-08-11T07:30:43;98522.72;;;27.67;38.94
74169;BME280;62523;53.336;83.690;2022-08-11T07:35:48;98504.25;;;26.99;40.83
74169;BME280;62523;53.336;83.690;2022-08-11T07:40:56;98503.03;;;26.88;40.69
74169;BME280;62523;53.336;83.690;2022-08-11T07:46:02;98511.91;;;27.67;39.23
74169;BME280;62523;53.336;83.690;2022-08-11T07:51:22;98502.56;;;27.63;39.38
74169;BME280;62523;53.336;83.690;2022-08-11T07:56:42;98493.47;;;28.21;37.82
74169;BME280;62523;53.336;83.690;2022-08-11T08:01:46;98495.22;;;27.70;39.14
74169;BME280;62523;53.336;83.690;2022-08-11T08:07:05;98499.09;;;27.94;38.36
74169;BME280;62523;53.336;83.690;2022-08-11T08:12:25;98497.56;;;27.02;40.45
74169;BME280;62523;53.336;83.690;2022-08-11T08:17:46;98492.56;;;27.12;39.69
74169;BME280;62523;53.336;83.690;2022-08-11T08:23:00;98487.94;;;27.32;39.71
74169;BME280;62523;53.336;83.690;2022-08-11T08:28:05;98471.38;;;27.61;38.84
74169;BME280;62523;53.336;83.690;2022-08-11T08:33:07;98475.69;;;27.68;38.89
74169;BME280;62523;53.336;83.690;2022-08-11T08:38:08;98474.53;;;27.51;38.39
74169;BME280;62523;53.336;83.690;2022-08-11T08:43:14;98474.88;;;28.00;37.34
74169;BME280;62523;53.336;83.690;2022-08-11T08:48:17;98468.13;;;27.84;37.53
74169;BME280;62523;53.336;83.690;2022-08-11T08:53:25;98461.13;;;27.31;38.65
74169;BME280;62523;53.336;83.690;2022-08-11T08:58:30;98452.88;;;27.51;38.41
74169;BME280;62523;53.336;83.690;2022-08-11T09:03:37;98446.66;;;27.50;38.57
74169;BME280;62523;53.336;83.690;2022-08-11T09:08:39;98441.97;;;27.71;38.00
74169;BME280;62523;53.336;83.690;2022-08-11T09:13:41;98439.81;;;27.48;38.16
74169;BME280;62523;53.336;83.690;2022-08-11T09:18:45;98430.75;;;27.67;37.49
74169;BME280;62523;53.336;83.690;2022-08-11T09:23:46;98422.06;;;28.15;36.80
74169;BME280;62523;53.336;83.690;2022-08-11T09:29:09;98427.31;;;27.85;37.53
74169;BME280;62523;53.336;83.690;2022-08-11T09:34:13;98426.06;;;27.88;36.55
74169;BME280;62523;53.336;83.690;2022-08-11T09:39:14;98422.25;;;27.95;37.31
74169;BME280;62523;53.336;83.690;2022-08-11T09:44:34;98412.69;;;28.18;36.29
74169;BME280;62523;53.336;83.690;2022-08-11T09:49:54;98401.19;;;28.23;36.43
74169;BME280;62523;53.336;83.690;2022-08-11T09:54:56;98409.25;;;28.29;35.25
74169;BME280;62523;53.336;83.690;2022-08-11T09:59:57;98416.00;;;27.95;36.52
74169;BME280;62523;53.336;83.690;2022-08-11T10:04:59;98417.09;;;28.12;35.59
74169;BME280;62523;53.336;83.690;2022-08-11T10:10:21;98408.56;;;27.84;37.07
74169;BME280;62523;53.336;83.690;2022-08-11T10:15:23;98403.56;;;28.12;36.76
74169;BME280;62523;53.336;83.690;2022-08-11T10:20:40;98403.84;;;28.04;37.07
74169;BME280;62523;53.336;83.690;2022-08-11T10:25:42;98403.91;;;28.23;37.05
74169;BME280;62523;53.336;83.690;2022-08-11T10:31:23;98394.81;;;28.35;36.88
74169;BME280;62523;53.336;83.690;2022-08-11T10:36:44;98398.88;;;28.45;36.77
74169;BME280;62523;53.336;83.690;2022-08-11T10:41:48;98403.44;;;28.26;35.91
74169;BME280;62523;53.336;83.690;2022-08-11T10:47:10;98398.34;;;28.36;34.74
74169;BME280;62523;53.336;83.690;2022-08-11T10:52:31;98392.41;;;28.46;34.78
74169;BME280;62523;53.336;83.690;2022-08-11T10:57:51;98380.69;;;28.33;35.17
74169;BME280;62523;53.336;83.690;2022-08-11T11:03:10;98374.53;;;28.19;35.14
74169;BME280;62523;53.336;83.690;2022-08-11T11:08:15;98387.66;;;27.97;35.67
74169;BME280;62523;53.336;83.690;2022-08-11T11:13:37;98388.56;;;28.35;35.04
74169;BME280;62523;53.336;83.690;2022-08-11T11:19:00;98392.94;;;27.92;34.46
74169;BME280;62523;53.336;83.690;2022-08-11T11:35:35;98390.28;;;27.79;35.64
74169;BME280;62523;53.336;83.690;2022-08-11T11:40:39;98388.00;;;27.76;36.20
74169;BME280;62523;53.336;83.690;2022-08-11T11:45:41;98382.66;;;27.69;36.20
74169;BME280;62523;53.336;83.690;2022-08-11T11:50:42;98399.28;;;27.73;36.45
74169;BME280;62523;53.336;83.690;2022-08-11T11:55:44;98408.34;;;27.60;37.35
74169;BME280;62523;53.336;83.690;2022-08-11T12:00:46;98411.28;;;27.52;39.39
74169;BME280;62523;53.336;83.690;2022-08-11T12:06:08;98419.28;;;27.33;40.38
74169;BME280;62523;53.336;83.690;2022-08-11T12:11:15;98417.19;;;27.35;40.00
74169;BME280;62523;53.336;83.690;2022-08-11T12:16:37;98420.53;;;27.37;39.42
74169;BME280;62523;53.336;83.690;2022-08-11T12:21:40;98420.97;;;27.34;39.84
74169;BME280;62523;53.336;83.690;2022-08-11T12:27:04;98415.25;;;27.49;39.32
74169;BME280;62523;53.336;83.690;2022-08-11T12:32:26;98411.38;;;27.39;39.77
74169;BME280;62523;53.336;83.690;2022-08-11T12:37:34;98401.44;;;27.32;40.23
74169;BME280;62523;53.336;83.690;2022-08-11T12:42:35;98408.59;;;27.07;39.90
74169;BME280;62523;53.336;83.690;2022-08-11T12:48:08;98423.50;;;25.03;54.16
74169;BME280;62523;53.336;83.690;2022-08-11T12:53:32;98450.44;;;21.44;67.76
74169;BME280;62523;53.336;83.690;2022-08-11T12:58:39;98471.00;;;21.98;64.18
74169;BME280;62523;53.336;83.690;2022-08-11T13:03:41;98462.50;;;21.71;66.13
74169;BME280;62523;53.336;83.690;2022-08-11T13:09:01;98476.78;;;21.86;65.95
74169;BME280;62523;53.336;83.690;2022-08-11T13:14:02;98467.75;;;22.02;67.47
74169;BME280;62523;53.336;83.690;2022-08-11T13:19:04;98486.84;;;22.07;62.84
74169;BME280;62523;53.336;83.690;2022-08-11T13:24:06;98496.81;;;22.75;55.49
74169;BME280;62523;53.336;83.690;2022-08-11T13:29:08;98496.91;;;22.81;53.84
74169;BME280;62523;53.336;83.690;2022-08-11T13:34:10;98501.13;;;22.76;54.10
74169;BME280;62523;53.336;83.690;2022-08-11T13:39:12;98506.53;;;22.90;53.10
74169;BME280;62523;53.336;83.690;2022-08-11T13:44:16;98506.97;;;22.79;53.17
74169;BME280;62523;53.336;83.690;2022-08-11T13:49:18;98508.75;;;22.87;52.86
74169;BME280;62523;53.336;83.690;2022-08-11T13:54:23;98495.03;;;22.67;54.33
74169;BME280;62523;53.336;83.690;2022-08-11T13:59:26;98494.19;;;22.52;55.29
74169;BME280;62523;53.336;83.690;2022-08-11T14:04:39;98488.47;;;22.55;56.45
74169;BME280;62523;53.336;83.690;2022-08-11T14:09:43;98496.38;;;22.33;57.05
74169;BME280;62523;53.336;83.690;2022-08-11T14:14:53;98502.66;;;22.25;57.06
74169;BME280;62523;53.336;83.690;2022-08-11T14:20:00;98507.41;;;22.38;55.38
74169;BME280;62523;53.336;83.690;2022-08-11T14:25:03;98510.25;;;22.37;55.24
74169;BME280;62523;53.336;83.690;2022-08-11T14:30:06;98524.16;;;22.40;54.07
74169;BME280;62523;53.336;83.690;2022-08-11T14:35:27;98526.25;;;22.30;54.31
74169;BME280;62523;53.336;83.690;2022-08-11T14:40:29;98531.31;;;22.25;54.49
74169;BME280;62523;53.336;83.690;2022-08-11T14:45:50;98543.00;;;22.32;56.14
74169;BME280;62523;53.336;83.690;2022-08-11T14:51:10;98543.22;;;21.99;60.14
74169;BME280;62523;53.336;83.690;2022-08-11T14:56:11;98545.63;;;21.94;60.32
74169;BME280;62523;53.336;83.690;2022-08-11T15:01:31;98542.06;;;21.94;59.18
74169;BME280;62523;53.336;83.690;2022-08-11T15:06:51;98541.13;;;21.86;60.84
74169;BME280;62523;53.336;83.690;2022-08-11T15:11:53;98540.88;;;21.42;64.01
74169;BME280;62523;53.336;83.690;2022-08-11T15:17:20;98550.72;;;21.02;65.19
74169;BME280;62523;53.336;83.690;2022-08-11T15:22:26;98560.75;;;21.00;65.27
74169;BME280;62523;53.336;83.690;2022-08-11T15:27:46;98559.09;;;20.91;63.60
74169;BME280;62523;53.336;83.690;2022-08-11T15:33:08;98571.84;;;20.80;63.22
74169;BME280;62523;53.336;83.690;2022-08-11T15:38:29;98580.69;;;20.07;66.33
74169;BME280;62523;53.336;83.690;2022-08-11T15:43:49;98585.34;;;19.54;68.78
74169;BME280;62523;53.336;83.690;2022-08-11T15:49:36;98584.63;;;19.44;69.90
74169;BME280;62523;53.336;83.690;2022-08-11T15:55:05;98589.53;;;18.88;72.72
74169;BME280;62523;53.336;83.690;2022-08-11T16:00:08;98584.63;;;18.57;74.21
74169;BME280;62523;53.336;83.690;2022-08-11T16:05:30;98575.47;;;18.60;74.39
74169;BME280;62523;53.336;83.690;2022-08-11T16:10:33;98580.69;;;18.26;75.84
74169;BME280;62523;53.336;83.690;2022-08-11T16:15:41;98582.69;;;18.41;74.90
74169;BME280;62523;53.336;83.690;2022-08-11T16:21:07;98593.16;;;18.43;75.14
74169;BME280;62523;53.336;83.690;2022-08-11T16:26:10;98604.47;;;18.37;75.03
74169;BME280;62523;53.336;83.690;2022-08-11T16:31:13;98595.72;;;18.27;75.02
74169;BME280;62523;53.336;83.690;2022-08-11T16:36:15;98594.81;;;18.18;74.70
74169;BME280;62523;53.336;83.690;2022-08-11T16:41:38;98609.56;;;18.12;74.75
74169;BME280;62523;53.336;83.690;2022-08-11T16:46:59;98608.97;;;18.00;75.21
74169;BME280;62523;53.336;83.690;2022-08-11T16:52:07;98588.94;;;17.96;75.34
74169;BME280;62523;53.336;83.690;2022-08-11T16:57:14;98563.25;;;17.95;75.25
74169;BME280;62523;53.336;83.690;2022-08-11T17:03:11;98563.09;;;18.15;74.01
74169;BME280;62523;53.336;83.690;2022-08-11T17:08:47;98545.28;;;18.33;72.65
74169;BME280;62523;53.336;83.690;2022-08-11T17:14:14;98530.03;;;18.44;71.67
74169;BME280;62523;53.336;83.690;2022-08-11T17:19:27;98526.00;;;18.39;72.07
74169;BME280;62523;53.336;83.690;2022-08-11T17:24:35;98536.75;;;18.30;72.77
74169;BME280;62523;53.336;83.690;2022-08-11T17:34:47;98538.44;;;18.13;73.18
74169;BME280;62523;53.336;83.690;2022-08-11T17:40:09;98553.59;;;18.12;73.70
74169;BME280;62523;53.336;83.690;2022-08-11T17:45:13;98605.22;;;18.29;72.53
74169;BME280;62523;53.336;83.690;2022-08-11T17:50:35;98634.63;;;17.36;78.37
74169;BME280;62523;53.336;83.690;2022-08-11T17:55:37;98644.91;;;17.22;78.92
74169;BME280;62523;53.336;83.690;2022-08-11T18:00:58;98633.53;;;17.29;78.45
74169;BME280;62523;53.336;83.690;2022-08-11T18:06:01;98620.44;;;17.46;76.02
74169;BME280;62523;53.336;83.690;2022-08-11T18:11:03;98635.84;;;17.79;74.60
74169;BME280;62523;53.336;83.690;2022-08-11T18:16:25;98624.31;;;17.89;73.93
74169;BME280;62523;53.336;83.690;2022-08-11T18:21:54;98616.19;;;18.08;72.82
74169;BME280;62523;53.336;83.690;2022-08-11T18:27:16;98595.72;;;18.27;71.68
74169;BME280;62523;53.336;83.690;2022-08-11T18:32:38;98599.13;;;18.37;71.06
74169;BME280;62523;53.336;83.690;2022-08-11T18:38:02;98600.41;;;18.51;70.60
74169;BME280;62523;53.336;83.690;2022-08-11T18:43:24;98598.28;;;18.54;69.96
74169;BME280;62523;53.336;83.690;2022-08-11T18:48:52;98596.22;;;18.48;70.17
74169;BME280;62523;53.336;83.690;2022-08-11T18:54:15;98601.63;;;18.56;69.87
74169;BME280;62523;53.336;83.690;2022-08-11T18:59:39;98574.03;;;18.66;69.14
74169;BME280;62523;53.336;83.690;2022-08-11T19:05:00;98581.63;;;18.78;68.66
74169;BME280;62523;53.336;83.690;2022-08-11T19:10:21;98590.56;;;18.69;69.17
74169;BME280;62523;53.336;83.690;2022-08-11T19:15:42;98594.56;;;18.91;68.38
74169;BME280;62523;53.336;83.690;2022-08-11T19:21:04;98603.19;;;18.85;68.40
74169;BME280;62523;53.336;83.690;2022-08-11T19:26:25;98615.53;;;18.68;70.39
74169;BME280;62523;53.336;83.690;2022-08-11T19:31:45;98632.94;;;18.18;73.31
74169;BME280;62523;53.336;83.690;2022-08-11T19:37:07;98624.38;;;17.42;78.09
74169;BME280;62523;53.336;83.690;2022-08-11T19:42:28;98589.06;;;17.39;78.78
74169;BME280;62523;53.336;83.690;2022-08-11T19:47:51;98588.84;;;17.60;78.54
74169;BME280;62523;53.336;83.690;2022-08-11T19:53:10;98593.69;;;17.47;80.73
74169;BME280;62523;53.336;83.690;2022-08-11T19:58:33;98561.75;;;17.65;77.50
74169;BME280;62523;53.336;83.690;2022-08-11T20:03:54;98543.28;;;17.81;76.97
74169;BME280;62523;53.336;83.690;2022-08-11T20:09:14;98543.28;;;17.81;75.30
74169;BME280;62523;53.336;83.690;2022-08-11T20:14:36;98546.59;;;17.66;76.04
74169;BME280;62523;53.336;83.690;2022-08-11T20:19:59;98518.00;;;17.68;75.94
74169;BME280;62523;53.336;83.690;2022-08-11T20:25:22;98519.97;;;17.66;76.63
74169;BME280;62523;53.336;83.690;2022-08-11T20:30:44;98540.59;;;17.64;76.10
74169;BME280;62523;53.336;83.690;2022-08-11T20:36:05;98539.31;;;17.68;76.03
74169;BME280;62523;53.336;83.690;2022-08-11T20:41:26;98524.78;;;17.62;76.05
74169;BME280;62523;53.336;83.690;2022-08-11T20:46:47;98544.84;;;17.84;75.54
74169;BME280;62523;53.336;83.690;2022-08-11T20:52:08;98547.88;;;17.61;76.58
74169;BME280;62523;53.336;83.690;2022-08-11T20:57:29;98552.50;;;17.42;78.04
74169;BME280;62523;53.336;83.690;2022-08-11T21:02:50;98547.94;;;17.34;77.73
74169;BME280;62523;53.336;83.690;2022-08-11T21:08:11;98548.78;;;17.25;78.33
74169;BME280;62523;53.336;83.690;2022-08-11T21:13:35;98548.31;;;17.39;77.26
74169;BME280;62523;53.336;83.690;2022-08-11T21:19:04;98541.75;;;17.33;77.40
74169;BME280;62523;53.336;83.690;2022-08-11T21:24:26;98551.28;;;17.36;78.05
74169;BME280;62523;53.336;83.690;2022-08-11T21:29:48;98555.41;;;17.48;77.52
74169;BME280;62523;53.336;83.690;2022-08-11T21:35:08;98559.84;;;17.30;78.53
74169;BME280;62523;53.336;83.690;2022-08-11T21:40:29;98552.25;;;17.35;78.38
74169;BME280;62523;53.336;83.690;2022-08-11T21:45:49;98551.00;;;17.29;78.70
74169;BME280;62523;53.336;83.690;2022-08-11T21:51:10;98559.75;;;17.22;78.87
74169;BME280;62523;53.336;83.690;2022-08-11T21:56:30;98567.59;;;17.23;79.97
74169;BME280;62523;53.336;83.690;2022-08-11T22:01:51;98565.88;;;16.94;81.77
74169;BME280;62523;53.336;83.690;2022-08-11T22:07:11;98568.72;;;16.83;82.16
74169;BME280;62523;53.336;83.690;2022-08-11T22:12:31;98573.75;;;17.24;80.24
74169;BME280;62523;53.336;83.690;2022-08-11T22:17:51;98582.75;;;17.13;81.76
74169;BME280;62523;53.336;83.690;2022-08-11T22:23:12;98581.69;;;16.96;81.82
74169;BME280;62523;53.336;83.690;2022-08-11T22:28:32;98590.06;;;17.01;82.08
74169;BME280;62523;53.336;83.690;2022-08-11T22:33:52;98607.16;;;17.08;82.77
74169;BME280;62523;53.336;83.690;2022-08-11T22:39:13;98622.75;;;16.93;83.30
74169;BME280;62523;53.336;83.690;2022-08-11T22:44:34;98621.47;;;16.68;84.52
74169;BME280;62523;53.336;83.690;2022-08-11T22:49:56;98625.84;;;16.50;85.09
74169;BME280;62523;53.336;83.690;2022-08-11T22:55:18;98621.38;;;16.31;86.60
74169;BME280;62523;53.336;83.690;2022-08-11T23:00:39;98620.78;;;16.08;88.01
74169;BME280;62523;53.336;83.690;2022-08-11T23:05:59;98627.91;;;15.97;88.84
74169;BME280;62523;53.336;83.690;2022-08-11T23:11:21;98640.47;;;15.95;89.27
74169;BME280;62523;53.336;83.690;2022-08-11T23:16:41;98646.34;;;15.89;89.53
74169;BME280;62523;53.336;83.690;2022-08-11T23:22:02;98647.06;;;16.01;89.30
74169;BME280;62523;53.336;83.690;2022-08-11T23:27:22;98649.16;;;15.97;89.95
74169;BME280;62523;53.336;83.690;2022-08-11T23:32:45;98641.19;;;15.88;90.53
74169;BME280;62523;53.336;83.690;2022-08-11T23:38:05;98641.47;;;16.04;89.82
74169;BME280;62523;53.336;83.690;2022-08-11T23:43:24;98624.03;;;16.11;88.97
74169;BME280;62523;53.336;83.690;2022-08-11T23:48:44;98630.56;;;16.75;86.33
74169;BME280;62523;53.336;83.690;2022-08-11T23:54:04;98633.06;;;16.96;84.78
74169;BME280;62523;53.336;83.690;2022-08-11T23:59:24;98624.44;;;17.32;83.20
